createdAt,value
2018-07-20T00:00:08.359Z,79.75
2018-07-20T00:01:08.362Z,79.94
2018-07-20T00:02:08.364Z,79.55
2018-07-20T00:03:08.367Z,79.75
2018-07-20T00:04:08.367Z,79.84
2018-07-20T00:05:08.369Z,79.55
2018-07-20T00:06:08.371Z,79.65
2018-07-20T00:07:08.374Z,80.13
2018-07-20T00:08:08.412Z,80.13
2018-07-20T00:09:08.378Z,80.04
2018-07-20T00:10:08.379Z,80.42
2018-07-20T00:11:08.386Z,80.71
2018-07-20T00:12:08.383Z,80.61
2018-07-20T00:13:08.385Z,80.61
2018-07-20T00:14:08.389Z,80.71
2018-07-20T00:15:08.391Z,80.61
2018-07-20T00:16:08.395Z,80.42
2018-07-20T00:17:08.392Z,80.51
2018-07-20T00:18:08.396Z,80.42
2018-07-20T00:19:08.397Z,80.51
2018-07-20T00:20:08.398Z,80.47
2018-07-20T00:21:08.400Z,80.57
2018-07-20T00:22:08.406Z,81.34
2018-07-20T00:23:08.406Z,81.15
2018-07-20T00:24:08.406Z,80.76
2018-07-20T00:25:08.449Z,81.15
2018-07-20T00:26:08.410Z,80.86
2018-07-20T00:27:08.411Z,80.57
2018-07-20T00:28:08.413Z,80.13
2018-07-20T00:29:08.416Z,80.61
2018-07-20T00:30:08.417Z,80.13
2018-07-20T00:31:08.419Z,80.13
2018-07-20T00:32:08.420Z,79.94
2018-07-20T00:33:08.423Z,80.32
2018-07-20T00:34:08.424Z,79.65
2018-07-20T00:35:08.427Z,80.22
2018-07-20T00:36:08.427Z,79.55
2018-07-20T00:37:08.430Z,79.46
2018-07-20T00:38:08.435Z,79.94
2018-07-20T00:39:08.434Z,79.94
2018-07-20T00:40:08.435Z,80.13
2018-07-20T00:41:08.438Z,80.04
2018-07-20T00:42:08.440Z,79.65
2018-07-20T00:43:08.441Z,80.04
2018-07-20T00:45:08.445Z,79.94
2018-07-20T00:46:08.447Z,80.22
2018-07-20T00:47:08.449Z,79.65
2018-07-20T00:48:08.450Z,79.55
2018-07-20T00:49:08.453Z,79.36
2018-07-20T00:50:08.454Z,79.17
2018-07-20T00:51:08.456Z,79.07
2018-07-20T00:52:08.456Z,78.78
2018-07-20T00:53:08.459Z,79.94
2018-07-20T00:54:08.460Z,79.75
2018-07-20T00:55:08.467Z,79.94
2018-07-20T00:56:08.465Z,80.22
2018-07-20T00:57:08.466Z,79.65
2018-07-20T00:58:08.469Z,79.36
2018-07-20T00:59:08.471Z,79.75
2018-07-20T01:00:08.472Z,79.65
2018-07-20T01:01:08.474Z,79.65
2018-07-20T01:02:08.476Z,79.46
2018-07-20T01:03:08.480Z,79.65
2018-07-20T01:04:08.479Z,79.94
2018-07-20T01:05:08.481Z,80.61
2018-07-20T01:06:08.483Z,80.04
2018-07-20T01:07:08.485Z,80.13
2018-07-20T01:08:08.488Z,80.22
2018-07-20T01:09:08.487Z,80.51
2018-07-20T01:10:08.490Z,80.22
2018-07-20T01:11:08.492Z,79.90
2018-07-20T01:12:08.492Z,80.38
2018-07-20T01:13:08.496Z,80.61
2018-07-20T01:14:08.497Z,80.76
2018-07-20T01:15:08.497Z,80.66
2018-07-20T01:16:08.500Z,81.15
2018-07-20T01:17:08.500Z,81.63
2018-07-20T01:18:08.504Z,82.10
2018-07-20T01:19:08.585Z,82.10
2018-07-20T01:20:08.507Z,81.63
2018-07-20T01:21:08.508Z,81.72
2018-07-20T01:22:08.511Z,82.20
2018-07-20T01:23:08.512Z,82.40
2018-07-20T01:24:08.515Z,82.49
2018-07-20T01:25:08.517Z,82.35
2018-07-20T01:26:08.517Z,82.68
2018-07-20T01:27:08.518Z,81.72
2018-07-20T01:28:08.519Z,82.20
2018-07-20T01:29:08.521Z,81.92
2018-07-20T01:30:08.523Z,82.78
2018-07-20T01:31:08.524Z,82.64
2018-07-20T01:32:08.526Z,81.82
2018-07-20T01:33:08.528Z,81.82
2018-07-20T01:34:08.528Z,82.49
2018-07-20T01:35:08.533Z,81.82
2018-07-20T01:36:08.533Z,81.43
2018-07-20T01:37:08.533Z,82.10
2018-07-20T01:38:08.536Z,81.53
2018-07-20T01:39:08.538Z,81.34
2018-07-20T01:40:08.539Z,81.53
2018-07-20T01:41:08.540Z,81.92
2018-07-20T01:42:08.547Z,81.43
2018-07-20T01:43:08.544Z,81.72
2018-07-20T01:44:08.544Z,81.63
2018-07-20T01:45:08.546Z,82.20
2018-07-20T01:46:08.549Z,82.10
2018-07-20T01:47:08.550Z,81.63
2018-07-20T01:48:08.552Z,81.92
2018-07-20T01:49:08.552Z,81.30
2018-07-20T01:50:08.555Z,81.82
2018-07-20T01:51:08.556Z,82.20
2018-07-20T01:52:08.557Z,82.87
2018-07-20T01:53:08.558Z,81.97
2018-07-20T01:54:08.561Z,81.40
2018-07-20T01:55:08.562Z,81.97
2018-07-20T01:56:08.563Z,82.26
2018-07-20T01:57:08.564Z,82.74
2018-07-20T01:58:08.566Z,82.45
2018-07-20T01:59:08.568Z,82.84
2018-07-20T02:00:08.569Z,82.64
2018-07-20T02:01:08.569Z,82.07
2018-07-20T02:02:08.572Z,82.20
2018-07-20T02:03:08.574Z,82.35
2018-07-20T02:04:08.575Z,81.72
2018-07-20T02:05:08.577Z,81.20
2018-07-20T02:06:08.577Z,80.66
2018-07-20T02:07:08.580Z,81.30
2018-07-20T02:08:08.580Z,81.15
2018-07-20T02:09:08.583Z,80.96
2018-07-20T02:10:08.584Z,81.53
2018-07-20T02:11:08.585Z,81.24
2018-07-20T02:12:08.586Z,81.24
2018-07-20T02:13:08.588Z,81.82
2018-07-20T02:14:08.589Z,82.07
2018-07-20T02:15:08.590Z,81.59
2018-07-20T02:16:08.592Z,82.16
2018-07-20T02:17:08.592Z,81.87
2018-07-20T02:18:08.594Z,81.78
2018-07-20T02:19:08.597Z,81.78
2018-07-20T02:20:08.596Z,82.64
2018-07-20T02:21:08.598Z,82.54
2018-07-20T02:22:08.604Z,82.26
2018-07-20T02:23:08.601Z,82.54
2018-07-20T02:24:08.602Z,82.54
2018-07-20T02:25:08.603Z,81.87
2018-07-20T02:26:08.605Z,82.26
2018-07-20T02:27:08.606Z,82.84
2018-07-20T02:28:08.609Z,83.22
2018-07-20T02:29:08.609Z,83.41
2018-07-20T02:30:08.610Z,83.70
2018-07-20T02:31:08.613Z,83.60
2018-07-20T02:32:08.612Z,83.70
2018-07-20T02:33:08.613Z,84.08
2018-07-20T02:34:08.617Z,84.08
2018-07-20T02:35:08.616Z,84.18
2018-07-20T02:36:08.617Z,84.08
2018-07-20T02:37:08.618Z,83.60
2018-07-20T02:38:08.620Z,83.31
2018-07-20T02:39:08.621Z,83.56
2018-07-20T02:40:08.622Z,83.80
2018-07-20T02:41:08.624Z,83.98
2018-07-20T02:42:08.626Z,83.51
2018-07-20T02:43:08.626Z,84.33
2018-07-20T02:44:08.629Z,84.33
2018-07-20T02:45:08.629Z,84.14
2018-07-20T02:46:08.630Z,84.61
2018-07-20T02:47:08.632Z,84.71
2018-07-20T02:48:08.632Z,84.71
2018-07-20T02:49:08.632Z,84.61
2018-07-20T02:50:08.635Z,85.19
2018-07-20T02:51:08.636Z,85.67
2018-07-20T02:52:08.635Z,85.28
2018-07-20T02:53:08.639Z,85.10
2018-07-20T02:54:08.640Z,85.28
2018-07-20T02:55:08.643Z,84.61
2018-07-20T02:56:08.641Z,84.52
2018-07-20T02:57:08.642Z,84.61
2018-07-20T02:58:08.644Z,84.42
2018-07-20T02:59:08.645Z,84.33
2018-07-20T03:00:08.646Z,84.52
2018-07-20T03:01:08.654Z,84.61
2018-07-20T03:02:08.648Z,85.48
2018-07-20T03:03:08.650Z,85.86
2018-07-20T03:04:08.650Z,85.28
2018-07-20T03:05:08.650Z,85.48
2018-07-20T03:06:08.653Z,85.10
2018-07-20T03:07:08.654Z,85.10
2018-07-20T03:08:08.655Z,84.91
2018-07-20T03:09:08.687Z,85.28
2018-07-20T03:10:08.657Z,85.19
2018-07-20T03:11:08.659Z,84.91
2018-07-20T03:12:08.659Z,84.91
2018-07-20T03:13:08.660Z,85.19
2018-07-20T03:14:08.661Z,85.77
2018-07-20T03:15:08.664Z,86.05
2018-07-20T03:16:08.668Z,86.15
2018-07-20T03:17:08.665Z,85.77
2018-07-20T03:18:08.671Z,85.67
2018-07-20T03:19:08.667Z,85.77
2018-07-20T03:20:08.667Z,85.28
2018-07-20T03:21:08.775Z,85.58
2018-07-20T03:22:08.670Z,85.38
2018-07-20T03:23:08.671Z,85.77
2018-07-20T03:24:08.671Z,86.54
2018-07-20T03:25:08.672Z,87.01
2018-07-20T03:26:08.674Z,86.15
2018-07-20T03:27:08.675Z,86.25
2018-07-20T03:28:08.675Z,86.34
2018-07-20T03:29:08.677Z,86.34
2018-07-20T03:30:08.678Z,86.44
2018-07-20T03:31:08.679Z,86.82
2018-07-20T03:32:08.680Z,87.30
2018-07-20T03:33:08.682Z,87.40
2018-07-20T03:34:08.683Z,87.55
2018-07-20T03:35:08.683Z,87.74
2018-07-20T03:36:08.683Z,88.31
2018-07-20T03:37:08.685Z,88.12
2018-07-20T03:38:08.686Z,88.70
2018-07-20T03:39:08.686Z,88.89
2018-07-20T03:40:08.688Z,88.70
2018-07-20T03:41:08.686Z,88.79
2018-07-20T03:42:08.690Z,88.31
2018-07-20T03:43:08.690Z,88.45
2018-07-20T03:44:08.690Z,88.84
2018-07-20T03:45:08.691Z,88.35
2018-07-20T03:46:08.692Z,88.51
2018-07-20T03:47:08.692Z,88.17
2018-07-20T03:48:08.693Z,89.12
2018-07-20T03:49:08.693Z,89.79
2018-07-20T03:50:08.695Z,90.37
2018-07-20T03:51:08.696Z,89.61
2018-07-20T03:52:08.738Z,90.14
2018-07-20T03:53:08.696Z,89.61
2018-07-20T03:54:08.697Z,89.94
2018-07-20T03:55:08.699Z,89.08
2018-07-20T03:56:08.699Z,89.41
2018-07-20T03:57:08.701Z,90.75
2018-07-20T03:58:08.702Z,91.42
2018-07-20T03:59:08.703Z,91.14
2018-07-20T04:00:08.703Z,91.14
2018-07-20T04:01:08.704Z,90.66
2018-07-20T04:02:08.705Z,89.61
2018-07-20T04:03:08.706Z,88.35
2018-07-20T04:04:08.706Z,89.22
2018-07-20T04:05:08.707Z,89.03
2018-07-20T04:06:08.708Z,88.35
2018-07-20T04:07:08.709Z,88.26
2018-07-20T04:08:08.709Z,88.26
2018-07-20T04:09:08.710Z,88.17
2018-07-20T04:10:08.765Z,88.35
2018-07-20T04:11:08.714Z,88.07
2018-07-20T04:12:08.714Z,88.17
2018-07-20T04:13:08.717Z,88.35
2018-07-20T04:14:08.715Z,87.98
2018-07-20T04:15:08.716Z,87.98
2018-07-20T04:16:08.718Z,88.17
2018-07-20T04:17:08.718Z,88.07
2018-07-20T04:18:08.719Z,88.07
2018-07-20T04:19:08.724Z,88.07
2018-07-20T04:20:08.720Z,88.35
2018-07-20T04:21:08.721Z,88.26
2018-07-20T04:22:08.723Z,88.17
2018-07-20T04:23:08.723Z,88.35
2018-07-20T04:24:08.723Z,87.98
2018-07-20T04:25:08.724Z,88.17
2018-07-20T04:26:08.726Z,88.74
2018-07-20T04:27:08.728Z,88.55
2018-07-20T04:28:08.729Z,88.93
2018-07-20T04:29:08.729Z,88.55
2018-07-20T04:30:08.729Z,88.55
2018-07-20T04:31:08.730Z,88.35
2018-07-20T04:32:08.732Z,88.93
2018-07-20T04:33:08.735Z,89.22
2018-07-20T04:34:08.734Z,89.41
2018-07-20T04:35:08.734Z,89.08
2018-07-20T04:36:08.735Z,89.56
2018-07-20T04:37:08.736Z,90.47
2018-07-20T04:38:08.738Z,89.89
2018-07-20T04:39:08.739Z,90.28
2018-07-20T04:40:08.739Z,89.41
2018-07-20T04:41:08.741Z,89.27
2018-07-20T04:42:08.740Z,90.18
2018-07-20T04:43:08.742Z,89.41
2018-07-20T04:44:08.743Z,90.56
2018-07-20T04:45:08.744Z,90.95
2018-07-20T04:46:08.745Z,91.05
2018-07-20T04:47:08.746Z,91.14
2018-07-20T04:48:08.750Z,90.37
2018-07-20T04:49:08.746Z,89.22
2018-07-20T04:50:08.748Z,89.32
2018-07-20T04:51:08.750Z,89.22
2018-07-20T04:52:08.753Z,89.22
2018-07-20T04:53:08.751Z,89.22
2018-07-20T04:54:08.752Z,89.51
2018-07-20T04:55:08.758Z,89.32
2018-07-20T04:56:08.757Z,89.32
2018-07-20T04:57:08.755Z,89.61
2018-07-20T04:58:08.757Z,89.03
2018-07-20T04:59:08.758Z,88.93
2018-07-20T05:00:08.758Z,90.37
2018-07-20T05:01:08.759Z,90.28
2018-07-20T05:02:08.762Z,89.03
2018-07-20T05:03:08.762Z,89.03
2018-07-20T05:04:08.762Z,89.12
2018-07-20T05:05:08.768Z,88.65
2018-07-20T05:06:08.766Z,88.45
2018-07-20T05:07:08.767Z,88.35
2018-07-20T05:08:08.770Z,89.12
2018-07-20T05:09:08.768Z,89.07
2018-07-20T05:10:08.772Z,88.40
2018-07-20T05:11:08.771Z,88.11
2018-07-20T05:12:08.774Z,88.11
2018-07-20T05:13:08.773Z,88.40
2018-07-20T05:14:08.775Z,87.63
2018-07-20T05:15:08.777Z,87.35
2018-07-20T05:16:08.775Z,87.54
2018-07-20T05:17:08.780Z,86.68
2018-07-20T05:18:08.779Z,86.68
2018-07-20T05:19:08.781Z,87.15
2018-07-20T05:20:08.781Z,86.87
2018-07-20T05:21:08.786Z,86.48
2018-07-20T05:22:08.785Z,85.71
2018-07-20T05:23:08.789Z,86.10
2018-07-20T05:24:08.816Z,86.33
2018-07-20T05:25:08.788Z,86.52
2018-07-20T05:26:08.791Z,85.85
2018-07-20T05:27:08.797Z,85.37
2018-07-20T05:28:08.791Z,85.18
2018-07-20T05:29:08.796Z,86.33
2018-07-20T05:30:08.795Z,85.66
2018-07-20T05:31:08.797Z,85.66
2018-07-20T05:32:08.813Z,85.75
2018-07-20T05:33:08.802Z,86.05
2018-07-20T05:34:08.802Z,85.28
2018-07-20T05:35:08.807Z,85.85
2018-07-20T05:36:08.804Z,85.22
2018-07-20T05:37:08.807Z,84.55
2018-07-20T05:38:08.813Z,85.03
2018-07-20T05:39:08.810Z,84.64
2018-07-20T05:40:08.811Z,85.03
2018-07-20T05:41:08.812Z,85.32
2018-07-20T05:42:08.814Z,83.59
2018-07-20T05:43:08.820Z,83.01
2018-07-20T05:44:08.820Z,83.69
2018-07-20T05:45:08.819Z,83.06
2018-07-20T05:46:08.822Z,82.48
2018-07-20T05:47:08.825Z,81.99
2018-07-20T05:48:08.825Z,81.52
2018-07-20T05:49:08.875Z,80.46
2018-07-20T05:50:08.831Z,80.46
2018-07-20T05:51:08.832Z,80.46
2018-07-20T05:52:08.833Z,80.07
2018-07-20T05:53:08.835Z,80.17
2018-07-20T05:54:08.845Z,80.21
2018-07-20T05:55:08.839Z,80.02
2018-07-20T05:56:08.841Z,80.17
2018-07-20T05:57:08.843Z,79.73
2018-07-20T05:58:08.846Z,79.05
2018-07-20T05:59:08.848Z,79.73
2018-07-20T06:00:08.850Z,79.73
2018-07-20T06:01:08.852Z,80.40
2018-07-20T06:02:08.854Z,80.69
2018-07-20T06:03:08.857Z,80.79
2018-07-20T06:04:08.888Z,81.94
2018-07-20T06:05:08.886Z,80.30
2018-07-20T06:06:08.892Z,80.30
2018-07-20T06:07:08.880Z,79.92
2018-07-20T06:08:08.911Z,79.92
2018-07-20T06:09:08.997Z,79.82
2018-07-20T06:10:08.873Z,79.53
2018-07-20T06:11:08.875Z,79.82
2018-07-20T06:12:08.877Z,79.77
2018-07-20T06:13:08.879Z,81.40
2018-07-20T06:14:08.937Z,81.21
2018-07-20T06:15:08.888Z,81.98
2018-07-20T06:16:08.886Z,80.15
2018-07-20T06:17:08.892Z,80.54
2018-07-20T06:18:08.893Z,80.35
2018-07-20T06:19:08.937Z,79.96
2018-07-20T06:20:09.004Z,79.86
2018-07-20T06:21:08.914Z,80.06
2018-07-20T06:22:08.990Z,79.58
2018-07-20T06:23:08.925Z,80.25
2018-07-20T06:24:08.908Z,80.00
2018-07-20T06:25:08.911Z,79.48
2018-07-20T06:26:08.912Z,79.43
2018-07-20T06:27:08.915Z,79.43
2018-07-20T06:28:08.917Z,78.17
2018-07-20T06:29:08.920Z,77.78
2018-07-20T06:30:08.922Z,77.01
2018-07-20T06:31:08.926Z,76.53
2018-07-20T06:32:08.930Z,75.96
2018-07-20T06:33:08.930Z,76.15
2018-07-20T06:34:08.949Z,76.18
2018-07-20T06:35:08.968Z,76.48
2018-07-20T06:36:09.000Z,76.48
2018-07-20T06:37:08.979Z,76.09
2018-07-20T06:38:09.037Z,76.67
2018-07-20T06:39:08.990Z,76.76
2018-07-20T06:40:09.050Z,76.38
2018-07-20T06:41:09.022Z,75.07
2018-07-20T06:42:09.005Z,74.49
2018-07-20T06:43:09.031Z,74.40
2018-07-20T06:44:09.038Z,76.42
2018-07-20T06:45:08.994Z,76.80
2018-07-20T06:46:09.027Z,76.23
2018-07-20T06:47:08.973Z,77.09
2018-07-20T06:48:08.975Z,75.07
2018-07-20T06:49:08.980Z,75.26
2018-07-20T06:50:08.986Z,75.36
2018-07-20T06:51:08.986Z,74.52
2018-07-20T06:52:08.991Z,74.33
2018-07-20T06:53:08.998Z,72.99
2018-07-20T06:54:08.996Z,71.92
2018-07-20T06:55:09.000Z,72.34
2018-07-20T06:56:09.003Z,72.54
2018-07-20T06:57:09.011Z,72.34
2018-07-20T06:58:09.011Z,71.09
2018-07-20T06:59:09.014Z,71.32
2018-07-20T07:00:09.045Z,71.51
2018-07-20T07:01:09.023Z,71.32
2018-07-20T07:02:09.293Z,70.45
2018-07-20T07:03:09.132Z,69.97
2018-07-20T07:04:09.104Z,69.97
2018-07-20T07:05:09.169Z,71.32
2018-07-20T07:06:09.043Z,72.19
2018-07-20T07:07:09.046Z,71.61
2018-07-20T07:08:09.050Z,71.32
2018-07-20T07:09:09.055Z,71.42
2018-07-20T07:10:09.060Z,71.70
2018-07-20T07:11:09.332Z,71.70
2018-07-20T07:12:09.370Z,71.42
2018-07-20T07:13:09.339Z,71.32
2018-07-20T07:14:09.076Z,71.42
2018-07-20T07:15:09.094Z,70.74
2018-07-20T07:16:09.084Z,71.51
2018-07-20T07:17:09.089Z,72.28
2018-07-20T07:18:09.341Z,71.90
2018-07-20T07:19:09.512Z,72.00
2018-07-20T07:20:09.102Z,71.42
2018-07-20T07:21:09.294Z,71.32
2018-07-20T07:22:09.650Z,72.09
2018-07-20T07:23:09.411Z,72.67
2018-07-20T07:24:09.411Z,71.84
2018-07-20T07:25:09.125Z,71.55
2018-07-20T07:26:09.127Z,71.94
2018-07-20T07:27:09.132Z,71.36
2018-07-20T07:28:09.135Z,70.87
2018-07-20T07:29:09.148Z,69.84
2018-07-20T07:30:09.193Z,69.94
2018-07-20T07:31:09.152Z,67.52
2018-07-20T07:32:09.475Z,68.91
2018-07-20T07:33:09.161Z,68.46
2018-07-20T07:34:09.168Z,67.98
2018-07-20T07:35:09.172Z,67.30
2018-07-20T07:36:09.178Z,66.27
2018-07-20T07:37:09.184Z,65.40
2018-07-20T07:38:09.192Z,68.73
2018-07-20T07:39:09.197Z,65.63
2018-07-20T07:40:09.202Z,64.37
2018-07-20T07:41:09.210Z,63.92
2018-07-20T07:42:09.241Z,60.91
2018-07-20T07:43:09.228Z,61.11
2018-07-20T07:44:09.230Z,62.75
2018-07-20T07:45:09.239Z,64.24
2018-07-20T07:46:09.247Z,60.97
2018-07-20T07:47:09.256Z,57.80
2018-07-20T07:48:09.264Z,56.67
2018-07-20T07:49:09.273Z,56.01
2018-07-20T07:50:09.282Z,55.14
2018-07-20T07:51:09.290Z,54.07
2018-07-20T07:52:09.297Z,54.46
2018-07-20T07:53:09.306Z,54.75
2018-07-20T07:54:09.317Z,54.07
2018-07-20T07:55:09.325Z,54.44
2018-07-20T07:56:09.331Z,55.89
2018-07-20T07:57:09.340Z,55.47
2018-07-20T07:58:09.348Z,56.74
2018-07-20T07:59:09.358Z,58.06
2018-07-20T08:00:09.364Z,58.55
2018-07-20T08:01:09.372Z,59.71
2018-07-20T08:02:09.380Z,58.94
2018-07-20T08:03:09.444Z,59.23
2018-07-20T08:04:09.398Z,58.16
2018-07-20T08:05:09.408Z,59.26
2018-07-20T08:06:09.417Z,59.64
2018-07-20T08:07:09.436Z,58.70
2018-07-20T08:08:09.436Z,57.44
2018-07-20T08:09:09.447Z,57.40
2018-07-20T08:10:09.561Z,54.71
2018-07-20T08:11:09.471Z,52.62
2018-07-20T08:12:09.481Z,50.60
2018-07-20T08:13:09.493Z,51.02
2018-07-20T08:14:09.506Z,51.63
2018-07-20T08:15:09.519Z,50.09
2018-07-20T08:16:09.532Z,46.90
2018-07-20T08:17:09.548Z,47.78
2018-07-20T08:18:09.560Z,47.02
2018-07-20T08:19:09.574Z,47.51
2018-07-20T08:20:09.588Z,48.12
2018-07-20T08:21:09.602Z,46.73
2018-07-20T08:22:09.617Z,47.53
2018-07-20T08:23:09.632Z,44.80
2018-07-20T08:24:09.645Z,44.60
2018-07-20T08:25:09.660Z,47.05
2018-07-20T08:26:09.676Z,45.51
2018-07-20T08:27:09.693Z,45.61
2018-07-20T08:28:09.707Z,45.70
2018-07-20T08:29:09.724Z,45.04
2018-07-20T08:30:09.739Z,44.26
2018-07-20T08:31:09.756Z,44.70
2018-07-20T08:32:09.773Z,46.51
2018-07-20T08:33:09.789Z,48.05
2018-07-20T08:34:09.802Z,48.32
2018-07-20T08:35:09.820Z,49.19
2018-07-20T08:36:09.833Z,47.83
2018-07-20T08:37:09.851Z,49.02
2018-07-20T08:38:09.873Z,49.24
2018-07-20T08:39:09.884Z,49.71
2018-07-20T08:40:09.897Z,50.07
2018-07-20T08:41:09.949Z,50.36
2018-07-20T08:42:09.931Z,50.92
2018-07-20T08:43:09.946Z,50.73
2018-07-20T08:44:09.962Z,51.58
2018-07-20T08:45:09.978Z,51.51
2018-07-20T08:46:09.994Z,51.63
2018-07-20T08:47:10.013Z,49.02
2018-07-20T08:48:10.025Z,49.56
2018-07-20T08:49:10.045Z,49.37
2018-07-20T08:50:10.059Z,49.49
2018-07-20T08:51:10.074Z,49.51
2018-07-20T08:52:10.088Z,49.24
2018-07-20T08:53:10.107Z,48.16
2018-07-20T08:54:10.204Z,48.48
2018-07-20T08:55:10.137Z,46.92
2018-07-20T08:56:10.172Z,46.16
2018-07-20T08:57:10.169Z,45.40
2018-07-20T08:58:10.186Z,46.28
2018-07-20T08:59:10.210Z,46.06
2018-07-20T09:00:10.218Z,44.48
2018-07-20T09:01:10.235Z,44.77
2018-07-20T09:02:10.252Z,44.77
2018-07-20T09:03:10.267Z,44.57
2018-07-20T09:04:10.286Z,44.65
2018-07-20T09:05:10.300Z,45.12
2018-07-20T09:06:10.322Z,45.02
2018-07-20T09:07:10.339Z,46.48
2018-07-20T09:08:10.350Z,45.61
2018-07-20T09:09:10.367Z,45.48
2018-07-20T09:10:10.387Z,47.44
2018-07-20T09:11:10.400Z,46.17
2018-07-20T09:12:10.417Z,47.75
2018-07-20T09:13:10.433Z,47.77
2018-07-20T09:14:10.448Z,47.09
2018-07-20T09:15:10.466Z,45.16
2018-07-20T09:16:10.483Z,45.86
2018-07-20T09:17:10.754Z,44.81
2018-07-20T09:18:10.515Z,44.62
2018-07-20T09:19:10.532Z,43.56
2018-07-20T09:20:10.546Z,43.07
2018-07-20T09:21:10.564Z,42.21
2018-07-20T09:22:10.580Z,41.13
2018-07-20T09:23:10.596Z,41.94
2018-07-20T09:24:10.611Z,43.12
2018-07-20T09:25:10.629Z,42.43
2018-07-20T09:26:10.646Z,42.43
2018-07-20T09:27:10.663Z,41.03
2018-07-20T09:28:10.700Z,40.70
2018-07-20T09:29:10.696Z,41.91
2018-07-20T09:30:10.715Z,43.26
2018-07-20T09:31:10.730Z,42.68
2018-07-20T09:32:10.828Z,43.18
2018-07-20T09:33:10.765Z,44.45
2018-07-20T09:34:10.784Z,43.69
2018-07-20T09:35:10.797Z,44.40
2018-07-20T09:36:10.813Z,43.10
2018-07-20T09:37:10.828Z,43.69
2018-07-20T09:38:10.846Z,45.23
2018-07-20T09:39:10.859Z,43.65
2018-07-20T09:40:10.876Z,46.50
2018-07-20T09:41:10.892Z,46.70
2018-07-20T09:42:10.909Z,46.92
2018-07-20T09:43:10.925Z,46.26
2018-07-20T09:44:10.940Z,46.18
2018-07-20T09:45:10.956Z,45.79
2018-07-20T09:46:10.974Z,45.13
2018-07-20T09:47:10.990Z,43.98
2018-07-20T09:48:11.014Z,42.70
2018-07-20T09:49:11.021Z,42.02
2018-07-20T09:50:11.038Z,41.03
2018-07-20T09:51:11.055Z,43.58
2018-07-20T09:52:11.068Z,41.41
2018-07-20T09:53:11.086Z,41.39
2018-07-20T09:54:11.109Z,41.78
2018-07-20T09:55:11.188Z,42.05
2018-07-20T09:56:11.133Z,42.30
2018-07-20T09:57:11.151Z,43.46
2018-07-20T09:58:11.208Z,44.41
2018-07-20T09:59:11.183Z,43.55
2018-07-20T10:00:11.221Z,44.53
2018-07-20T10:01:11.297Z,45.21
2018-07-20T10:02:11.230Z,48.26
2018-07-20T10:03:11.245Z,43.59
2018-07-20T10:04:11.260Z,45.97
2018-07-20T10:05:11.301Z,44.52
2018-07-20T10:06:11.348Z,41.68
2018-07-20T10:07:11.307Z,42.07
2018-07-20T10:08:11.321Z,44.52
2018-07-20T10:09:11.338Z,41.11
2018-07-20T10:10:11.353Z,42.58
2018-07-20T10:11:11.368Z,43.09
2018-07-20T10:12:11.385Z,40.43
2018-07-20T10:13:11.400Z,39.62
2018-07-20T10:14:11.415Z,40.27
2018-07-20T10:15:11.429Z,40.17
2018-07-20T10:16:11.448Z,40.45
2018-07-20T10:17:11.460Z,41.52
2018-07-20T10:18:11.476Z,43.28
2018-07-20T10:19:11.537Z,42.21
2018-07-20T10:20:11.511Z,40.16
2018-07-20T10:21:11.521Z,43.69
2018-07-20T10:22:11.537Z,44.40
2018-07-20T10:23:11.553Z,44.81
2018-07-20T10:24:11.568Z,42.29
2018-07-20T10:25:11.581Z,43.56
2018-07-20T10:26:11.597Z,40.43
2018-07-20T10:27:11.611Z,41.92
2018-07-20T10:28:11.626Z,43.19
2018-07-20T10:29:11.641Z,39.39
2018-07-20T10:30:11.657Z,41.05
2018-07-20T10:31:11.672Z,41.84
2018-07-20T10:32:11.685Z,40.17
2018-07-20T10:33:11.700Z,38.80
2018-07-20T10:34:11.718Z,40.27
2018-07-20T10:35:11.735Z,38.72
2018-07-20T10:36:11.745Z,41.76
2018-07-20T10:37:11.760Z,42.15
2018-07-20T10:38:11.776Z,39.22
2018-07-20T10:39:11.790Z,35.78
2018-07-20T10:40:11.806Z,35.86
2018-07-20T10:41:11.819Z,36.55
2018-07-20T10:42:11.837Z,37.52
2018-07-20T10:43:11.869Z,36.57
2018-07-20T10:44:11.864Z,38.13
2018-07-20T10:45:11.879Z,38.72
2018-07-20T10:46:11.898Z,34.41
2018-07-20T10:47:11.912Z,33.22
2018-07-20T10:48:11.926Z,36.74
2018-07-20T10:49:11.948Z,37.54
2018-07-20T10:50:11.956Z,37.25
2018-07-20T10:51:11.970Z,38.04
2018-07-20T10:52:12.036Z,37.25
2018-07-20T10:53:12.039Z,36.96
2018-07-20T10:54:12.016Z,35.49
2018-07-20T10:55:12.030Z,36.57
2018-07-20T10:56:12.045Z,33.62
2018-07-20T10:57:12.060Z,36.86
2018-07-20T10:58:12.076Z,33.31
2018-07-20T10:59:12.090Z,32.12
2018-07-20T11:00:12.103Z,36.43
2018-07-20T11:01:12.119Z,36.65
2018-07-20T11:02:13.155Z,38.21
2018-07-20T11:03:12.149Z,39.09
2018-07-20T11:04:12.162Z,35.19
2018-07-20T11:05:12.177Z,33.82
2018-07-20T11:06:12.192Z,33.34
2018-07-20T11:07:12.206Z,35.89
2018-07-20T11:08:12.221Z,35.97
2018-07-20T11:09:12.237Z,32.92
2018-07-20T11:10:12.251Z,34.38
2018-07-20T11:11:12.266Z,38.00
2018-07-20T11:12:12.279Z,35.86
2018-07-20T11:13:12.294Z,37.63
2018-07-20T11:14:12.309Z,36.76
2018-07-20T11:15:12.325Z,35.78
2018-07-20T11:16:12.338Z,36.57
2018-07-20T11:17:12.356Z,36.66
2018-07-20T11:18:12.367Z,36.27
2018-07-20T11:19:12.382Z,33.53
2018-07-20T11:20:12.395Z,34.01
2018-07-20T11:21:12.412Z,35.19
2018-07-20T11:22:12.428Z,36.37
2018-07-20T11:23:12.443Z,32.61
2018-07-20T11:24:12.454Z,32.99
2018-07-20T11:25:12.468Z,33.95
2018-07-20T11:26:12.484Z,34.01
2018-07-20T11:27:12.499Z,35.27
2018-07-20T11:28:12.512Z,33.30
2018-07-20T11:29:12.529Z,34.57
2018-07-20T11:30:12.541Z,33.89
2018-07-20T11:31:12.554Z,35.27
2018-07-20T11:32:12.566Z,38.30
2018-07-20T11:33:12.582Z,39.41
2018-07-20T11:34:12.595Z,39.62
2018-07-20T11:35:12.609Z,36.59
2018-07-20T11:36:12.627Z,36.12
2018-07-20T11:37:12.637Z,32.30
2018-07-20T11:38:12.651Z,31.01
2018-07-20T11:39:12.672Z,31.11
2018-07-20T11:40:12.677Z,34.54
2018-07-20T11:41:12.696Z,34.64
2018-07-20T11:42:12.713Z,37.00
2018-07-20T11:43:12.719Z,32.01
2018-07-20T11:44:12.732Z,33.26
2018-07-20T11:45:12.746Z,34.05
2018-07-20T11:46:12.759Z,32.29
2018-07-20T11:47:12.773Z,31.77
2018-07-20T11:48:12.784Z,31.87
2018-07-20T11:49:12.798Z,34.50
2018-07-20T11:50:12.811Z,32.94
2018-07-20T11:51:12.825Z,34.01
2018-07-20T11:52:12.838Z,32.26
2018-07-20T11:53:13.094Z,32.26
2018-07-20T11:54:12.864Z,33.70
2018-07-20T11:55:12.878Z,31.84
2018-07-20T11:56:12.889Z,33.28
2018-07-20T11:57:12.903Z,34.57
2018-07-20T11:58:12.916Z,34.96
2018-07-20T11:59:12.928Z,33.79
2018-07-20T12:00:12.941Z,34.26
2018-07-20T12:01:12.953Z,33.01
2018-07-20T12:02:12.966Z,34.18
2018-07-20T12:03:12.978Z,33.18
2018-07-20T12:04:12.989Z,34.44
2018-07-20T12:05:13.019Z,35.10
2018-07-20T12:06:13.020Z,35.77
2018-07-20T12:07:13.026Z,35.36
2018-07-20T12:08:13.037Z,35.65
2018-07-20T12:09:13.051Z,36.33
2018-07-20T12:10:13.059Z,36.63
2018-07-20T12:11:13.071Z,35.94
2018-07-20T12:12:13.079Z,36.45
2018-07-20T12:13:13.092Z,36.57
2018-07-20T12:14:13.102Z,36.10
2018-07-20T12:15:13.114Z,35.02
2018-07-20T12:16:13.124Z,35.61
2018-07-20T12:17:13.135Z,35.33
2018-07-20T12:18:13.148Z,36.43
2018-07-20T12:19:13.158Z,36.52
2018-07-20T12:20:13.169Z,35.64
2018-07-20T12:21:13.180Z,35.74
2018-07-20T12:22:13.191Z,33.80
2018-07-20T12:23:13.203Z,32.32
2018-07-20T12:24:13.214Z,33.90
2018-07-20T12:25:13.343Z,32.13
2018-07-20T12:26:13.238Z,34.47
2018-07-20T12:27:13.249Z,32.52
2018-07-20T12:28:13.306Z,32.04
2018-07-20T12:29:13.272Z,33.82
2018-07-20T12:30:13.284Z,32.84
2018-07-20T12:31:13.595Z,33.23
2018-07-20T12:32:13.305Z,33.22
2018-07-20T12:33:13.319Z,34.55
2018-07-20T12:34:13.573Z,34.55
2018-07-20T12:35:13.342Z,35.12
2018-07-20T12:36:13.353Z,35.22
2018-07-20T12:37:13.365Z,37.45
2018-07-20T12:38:13.643Z,36.08
2018-07-20T12:39:13.390Z,34.59
2018-07-20T12:40:13.402Z,35.57
2018-07-20T12:41:13.483Z,36.24
2018-07-20T12:42:13.421Z,38.28
2018-07-20T12:43:13.429Z,37.81
2018-07-20T12:44:13.491Z,36.35
2018-07-20T12:45:13.460Z,38.49
2018-07-20T12:46:13.459Z,40.45
2018-07-20T12:47:13.471Z,41.11
2018-07-20T12:48:13.479Z,41.99
2018-07-20T12:49:13.491Z,42.28
2018-07-20T12:50:13.549Z,42.96
2018-07-20T12:51:13.508Z,43.52
2018-07-20T12:52:13.517Z,44.30
2018-07-20T12:53:13.529Z,44.89